Wheaton Aston, United Kingdom
Current Conditions -  °F | °C
As of 8:50 AM on Friday 24 Oct 2014 (Local Time) from EGOS Reporting Station
Broken Clouds Broken Clouds  
Wind Chill: 57°   Ceiling: 3500
Heat Index: 57°   Visibility: 6mi
Dew Point: 54°   Wind: 9mph
Humidity: 88%   Direction: 220°SW
Pressure: 29.88"   Gusts: NA
Location:  52.71°N, 2.22°W
Report Text: EGOS 240750Z 22008KT 9999 FEW020 BKN035 14/12 Q1012 BLU TEMPO 7000 -RADZ BKN018 WHT
Loading
Personal Weather Stations






























Interactive Weather Map New forecast layout! Learn more

10-Day Weather Forecast

Advertisements
Track Severe Weather on mobile